sensor_id;sensor_type;location;lat;lon;timestamp;temperature;humidity
35111;DHT22;21290;50.158;8.658;2022-12-29T00:02:23;10.40;99.90
35111;DHT22;21290;50.158;8.658;2022-12-29T00:04:50;10.40;99.90
35111;DHT22;21290;50.158;8.658;2022-12-29T00:07:17;10.40;99.90
35111;DHT22;21290;50.158;8.658;2022-12-29T00:09:43;10.40;99.90
35111;DHT22;21290;50.158;8.658;2022-12-29T00:12:10;10.40;99.90
35111;DHT22;21290;50.158;8.658;2022-12-29T00:14:36;10.40;99.90
35111;DHT22;21290;50.158;8.658;2022-12-29T00:17:22;10.40;99.90
35111;DHT22;21290;50.158;8.658;2022-12-29T00:19:48;10.40;99.90
35111;DHT22;21290;50.158;8.658;2022-12-29T00:22:33;10.40;99.90
35111;DHT22;21290;50.158;8.658;2022-12-29T00:25:18;10.30;99.90
35111;DHT22;21290;50.158;8.658;2022-12-29T00:28:04;10.30;99.90
35111;DHT22;21290;50.158;8.658;2022-12-29T00:30:49;10.20;99.90
35111;DHT22;21290;50.158;8.658;2022-12-29T00:33:34;10.20;99.90
35111;DHT22;21290;50.158;8.658;2022-12-29T00:36:23;10.20;99.90
35111;DHT22;21290;50.158;8.658;2022-12-29T00:39:12;10.20;99.90
35111;DHT22;21290;50.158;8.658;2022-12-29T00:42:05;10.20;99.90
35111;DHT22;21290;50.158;8.658;2022-12-29T00:45:04;10.20;99.90
35111;DHT22;21290;50.158;8.658;2022-12-29T00:47:31;10.30;99.90
35111;DHT22;21290;50.158;8.658;2022-12-29T00:49:57;10.30;99.90
35111;DHT22;21290;50.158;8.658;2022-12-29T00:52:24;10.40;99.90
35111;DHT22;21290;50.158;8.658;2022-12-29T00:54:50;10.30;99.90
35111;DHT22;21290;50.158;8.658;2022-12-29T00:57:17;10.30;99.90
35111;DHT22;21290;50.158;8.658;2022-12-29T00:59:43;10.30;99.90
35111;DHT22;21290;50.158;8.658;2022-12-29T01:02:11;10.30;99.90
35111;DHT22;21290;50.158;8.658;2022-12-29T01:04:38;10.30;99.90
35111;DHT22;21290;50.158;8.658;2022-12-29T01:07:04;10.40;99.90
35111;DHT22;21290;50.158;8.658;2022-12-29T01:09:31;10.50;99.90
35111;DHT22;21290;50.158;8.658;2022-12-29T01:12:17;10.70;99.90
35111;DHT22;21290;50.158;8.658;2022-12-29T01:15:04;10.70;99.90
35111;DHT22;21290;50.158;8.658;2022-12-29T01:17:30;10.80;99.90
35111;DHT22;21290;50.158;8.658;2022-12-29T01:19:57;10.80;99.90
35111;DHT22;21290;50.158;8.658;2022-12-29T01:22:23;10.90;99.90
35111;DHT22;21290;50.158;8.658;2022-12-29T01:24:50;10.90;99.90
35111;DHT22;21290;50.158;8.658;2022-12-29T01:27:16;11.00;99.90
35111;DHT22;21290;50.158;8.658;2022-12-29T01:29:43;11.00;99.90
35111;DHT22;21290;50.158;8.658;2022-12-29T01:32:10;11.00;99.90
35111;DHT22;21290;50.158;8.658;2022-12-29T01:34:36;11.00;99.90
35111;DHT22;21290;50.158;8.658;2022-12-29T01:37:03;11.00;99.90
35111;DHT22;21290;50.158;8.658;2022-12-29T01:39:29;10.90;99.90
35111;DHT22;21290;50.158;8.658;2022-12-29T01:41:55;11.00;99.90
35111;DHT22;21290;50.158;8.658;2022-12-29T01:47:07;10.90;99.90
35111;DHT22;21290;50.158;8.658;2022-12-29T01:49:34;10.90;99.90
35111;DHT22;21290;50.158;8.658;2022-12-29T01:52:02;10.90;99.90
35111;DHT22;21290;50.158;8.658;2022-12-29T01:54:31;10.80;99.90
35111;DHT22;21290;50.158;8.658;2022-12-29T01:57:00;10.80;99.90
35111;DHT22;21290;50.158;8.658;2022-12-29T01:59:28;10.80;99.90
35111;DHT22;21290;50.158;8.658;2022-12-29T02:01:56;10.70;99.90
35111;DHT22;21290;50.158;8.658;2022-12-29T02:04:23;10.70;99.90
35111;DHT22;21290;50.158;8.658;2022-12-29T02:06:55;10.70;99.90
35111;DHT22;21290;50.158;8.658;2022-12-29T02:09:23;10.70;99.90
35111;DHT22;21290;50.158;8.658;2022-12-29T02:11:50;10.70;99.90
35111;DHT22;21290;50.158;8.658;2022-12-29T02:14:17;10.70;99.90
35111;DHT22;21290;50.158;8.658;2022-12-29T02:16:55;10.70;99.90
35111;DHT22;21290;50.158;8.658;2022-12-29T02:24:43;10.70;99.90
35111;DHT22;21290;50.158;8.658;2022-12-29T02:32:29;10.60;99.90
35111;DHT22;21290;50.158;8.658;2022-12-29T02:35:01;10.50;99.90
35111;DHT22;21290;50.158;8.658;2022-12-29T02:37:31;10.60;99.90
35111;DHT22;21290;50.158;8.658;2022-12-29T02:40:02;10.60;99.90
35111;DHT22;21290;50.158;8.658;2022-12-29T02:44:59;10.60;99.90
35111;DHT22;21290;50.158;8.658;2022-12-29T02:50:01;10.50;99.90
35111;DHT22;21290;50.158;8.658;2022-12-29T02:52:37;10.50;99.90
35111;DHT22;21290;50.158;8.658;2022-12-29T02:55:05;10.40;99.90
35111;DHT22;21290;50.158;8.658;2022-12-29T02:57:33;10.40;99.90
35111;DHT22;21290;50.158;8.658;2022-12-29T03:00:02;10.40;99.90
35111;DHT22;21290;50.158;8.658;2022-12-29T03:02:31;10.40;99.90
35111;DHT22;21290;50.158;8.658;2022-12-29T03:10:41;10.60;99.90
35111;DHT22;21290;50.158;8.658;2022-12-29T03:21:34;10.80;99.90
35111;DHT22;21290;50.158;8.658;2022-12-29T03:24:22;10.80;99.90
35111;DHT22;21290;50.158;8.658;2022-12-29T03:26:50;10.80;99.90
35111;DHT22;21290;50.158;8.658;2022-12-29T03:29:17;10.90;99.90
35111;DHT22;21290;50.158;8.658;2022-12-29T03:31:44;10.90;99.90
35111;DHT22;21290;50.158;8.658;2022-12-29T03:34:13;10.90;99.90
35111;DHT22;21290;50.158;8.658;2022-12-29T03:36:44;10.90;99.90
35111;DHT22;21290;50.158;8.658;2022-12-29T03:39:12;10.90;99.90
35111;DHT22;21290;50.158;8.658;2022-12-29T03:41:40;10.90;99.90
35111;DHT22;21290;50.158;8.658;2022-12-29T03:44:07;10.90;99.90
35111;DHT22;21290;50.158;8.658;2022-12-29T03:46:34;10.90;99.90
35111;DHT22;21290;50.158;8.658;2022-12-29T03:49:01;10.90;99.90
35111;DHT22;21290;50.158;8.658;2022-12-29T03:51:27;11.00;99.90
35111;DHT22;21290;50.158;8.658;2022-12-29T03:53:54;11.10;99.90
35111;DHT22;21290;50.158;8.658;2022-12-29T03:56:21;11.10;99.90
35111;DHT22;21290;50.158;8.658;2022-12-29T03:58:47;11.10;99.90
35111;DHT22;21290;50.158;8.658;2022-12-29T04:01:14;11.10;99.90
35111;DHT22;21290;50.158;8.658;2022-12-29T04:03:40;11.20;99.90
35111;DHT22;21290;50.158;8.658;2022-12-29T04:06:07;11.20;99.90
35111;DHT22;21290;50.158;8.658;2022-12-29T04:08:34;11.30;99.90
35111;DHT22;21290;50.158;8.658;2022-12-29T04:11:00;11.30;99.90
35111;DHT22;21290;50.158;8.658;2022-12-29T04:13:27;11.30;99.90
35111;DHT22;21290;50.158;8.658;2022-12-29T04:15:54;11.30;99.90
35111;DHT22;21290;50.158;8.658;2022-12-29T04:18:20;11.30;99.90
35111;DHT22;21290;50.158;8.658;2022-12-29T04:20:47;11.40;99.90
35111;DHT22;21290;50.158;8.658;2022-12-29T04:23:29;11.40;99.90
35111;DHT22;21290;50.158;8.658;2022-12-29T04:25:56;11.40;99.90
35111;DHT22;21290;50.158;8.658;2022-12-29T04:28:23;11.40;99.90
35111;DHT22;21290;50.158;8.658;2022-12-29T04:30:49;11.50;99.90
35111;DHT22;21290;50.158;8.658;2022-12-29T04:33:16;11.50;99.90
35111;DHT22;21290;50.158;8.658;2022-12-29T04:35:44;11.50;99.90
35111;DHT22;21290;50.158;8.658;2022-12-29T04:38:11;11.60;99.90
35111;DHT22;21290;50.158;8.658;2022-12-29T04:40:38;11.60;99.90
35111;DHT22;21290;50.158;8.658;2022-12-29T04:43:06;11.60;99.90
35111;DHT22;21290;50.158;8.658;2022-12-29T04:45:32;11.60;99.90
35111;DHT22;21290;50.158;8.658;2022-12-29T04:48:00;11.60;99.90
35111;DHT22;21290;50.158;8.658;2022-12-29T04:50:26;11.60;99.90
35111;DHT22;21290;50.158;8.658;2022-12-29T04:52:53;11.60;99.90
35111;DHT22;21290;50.158;8.658;2022-12-29T04:55:19;11.60;99.90
35111;DHT22;21290;50.158;8.658;2022-12-29T04:57:46;11.70;99.90
35111;DHT22;21290;50.158;8.658;2022-12-29T05:00:12;11.70;99.90
35111;DHT22;21290;50.158;8.658;2022-12-29T05:02:39;11.70;99.90
35111;DHT22;21290;50.158;8.658;2022-12-29T05:05:06;11.80;99.90
35111;DHT22;21290;50.158;8.658;2022-12-29T05:07:33;11.80;99.90
35111;DHT22;21290;50.158;8.658;2022-12-29T05:10:00;11.80;99.90
35111;DHT22;21290;50.158;8.658;2022-12-29T05:12:29;11.90;99.90
35111;DHT22;21290;50.158;8.658;2022-12-29T05:14:55;11.80;99.90
35111;DHT22;21290;50.158;8.658;2022-12-29T05:17:22;11.80;99.90
35111;DHT22;21290;50.158;8.658;2022-12-29T05:19:48;11.80;99.90
35111;DHT22;21290;50.158;8.658;2022-12-29T05:22:15;11.80;99.90
35111;DHT22;21290;50.158;8.658;2022-12-29T05:24:43;11.70;99.90
35111;DHT22;21290;50.158;8.658;2022-12-29T05:27:10;11.70;99.90
35111;DHT22;21290;50.158;8.658;2022-12-29T05:29:36;11.70;99.90
35111;DHT22;21290;50.158;8.658;2022-12-29T05:32:03;11.60;99.90
35111;DHT22;21290;50.158;8.658;2022-12-29T05:34:30;11.70;99.90
35111;DHT22;21290;50.158;8.658;2022-12-29T05:36:56;11.60;99.90
35111;DHT22;21290;50.158;8.658;2022-12-29T05:39:23;11.50;99.90
35111;DHT22;21290;50.158;8.658;2022-12-29T05:41:49;11.40;99.90
35111;DHT22;21290;50.158;8.658;2022-12-29T05:44:16;11.40;99.90
35111;DHT22;21290;50.158;8.658;2022-12-29T05:46:43;11.40;99.90
35111;DHT22;21290;50.158;8.658;2022-12-29T05:49:10;11.40;99.90
35111;DHT22;21290;50.158;8.658;2022-12-29T05:51:36;11.40;99.90
35111;DHT22;21290;50.158;8.658;2022-12-29T05:54:03;11.40;99.90
35111;DHT22;21290;50.158;8.658;2022-12-29T05:56:30;11.50;99.90
35111;DHT22;21290;50.158;8.658;2022-12-29T05:58:56;11.50;99.90
35111;DHT22;21290;50.158;8.658;2022-12-29T06:01:23;11.50;99.90
35111;DHT22;21290;50.158;8.658;2022-12-29T06:03:49;11.60;99.90
35111;DHT22;21290;50.158;8.658;2022-12-29T06:06:16;11.60;99.90
35111;DHT22;21290;50.158;8.658;2022-12-29T06:08:43;11.60;99.90
35111;DHT22;21290;50.158;8.658;2022-12-29T06:11:10;11.70;99.90
35111;DHT22;21290;50.158;8.658;2022-12-29T06:13:36;11.70;99.90
35111;DHT22;21290;50.158;8.658;2022-12-29T06:16:03;11.70;99.90
35111;DHT22;21290;50.158;8.658;2022-12-29T06:18:30;11.80;99.90
35111;DHT22;21290;50.158;8.658;2022-12-29T06:21:00;11.80;99.90
35111;DHT22;21290;50.158;8.658;2022-12-29T06:23:27;11.90;99.90
35111;DHT22;21290;50.158;8.658;2022-12-29T06:25:53;11.90;99.90
35111;DHT22;21290;50.158;8.658;2022-12-29T06:28:20;11.90;99.90
35111;DHT22;21290;50.158;8.658;2022-12-29T06:30:47;11.90;99.90
35111;DHT22;21290;50.158;8.658;2022-12-29T06:33:14;11.90;99.90
35111;DHT22;21290;50.158;8.658;2022-12-29T06:35:44;12.00;99.90
35111;DHT22;21290;50.158;8.658;2022-12-29T06:38:12;12.00;99.90
35111;DHT22;21290;50.158;8.658;2022-12-29T06:40:38;12.00;99.90
35111;DHT22;21290;50.158;8.658;2022-12-29T06:43:07;12.00;99.90
35111;DHT22;21290;50.158;8.658;2022-12-29T06:45:34;12.00;99.90
35111;DHT22;21290;50.158;8.658;2022-12-29T06:48:00;12.00;99.90
35111;DHT22;21290;50.158;8.658;2022-12-29T06:50:27;12.00;99.90
35111;DHT22;21290;50.158;8.658;2022-12-29T06:52:53;12.00;99.90
35111;DHT22;21290;50.158;8.658;2022-12-29T06:55:20;12.00;99.90
35111;DHT22;21290;50.158;8.658;2022-12-29T06:57:47;12.00;99.90
35111;DHT22;21290;50.158;8.658;2022-12-29T07:00:14;11.90;99.90
35111;DHT22;21290;50.158;8.658;2022-12-29T07:02:47;11.70;99.90
35111;DHT22;21290;50.158;8.658;2022-12-29T07:05:14;11.40;99.90
35111;DHT22;21290;50.158;8.658;2022-12-29T07:07:41;11.20;99.90
35111;DHT22;21290;50.158;8.658;2022-12-29T07:10:08;11.00;99.90
35111;DHT22;21290;50.158;8.658;2022-12-29T07:12:34;10.80;99.90
35111;DHT22;21290;50.158;8.658;2022-12-29T07:15:01;10.60;99.90
35111;DHT22;21290;50.158;8.658;2022-12-29T07:17:28;10.60;99.90
35111;DHT22;21290;50.158;8.658;2022-12-29T07:19:54;10.60;99.90
35111;DHT22;21290;50.158;8.658;2022-12-29T07:22:21;10.60;99.90
35111;DHT22;21290;50.158;8.658;2022-12-29T07:24:47;10.50;99.90
35111;DHT22;21290;50.158;8.658;2022-12-29T07:27:14;10.60;99.90
35111;DHT22;21290;50.158;8.658;2022-12-29T07:29:41;10.50;99.90
35111;DHT22;21290;50.158;8.658;2022-12-29T07:32:07;10.50;99.90
35111;DHT22;21290;50.158;8.658;2022-12-29T07:34:34;10.60;99.90
35111;DHT22;21290;50.158;8.658;2022-12-29T07:37:01;10.70;99.90
35111;DHT22;21290;50.158;8.658;2022-12-29T07:39:27;10.70;99.90
35111;DHT22;21290;50.158;8.658;2022-12-29T07:41:54;10.80;99.90
35111;DHT22;21290;50.158;8.658;2022-12-29T07:44:28;10.90;99.90
35111;DHT22;21290;50.158;8.658;2022-12-29T07:46:54;10.90;99.90
35111;DHT22;21290;50.158;8.658;2022-12-29T07:49:23;11.00;99.90
35111;DHT22;21290;50.158;8.658;2022-12-29T07:51:49;11.10;99.90
35111;DHT22;21290;50.158;8.658;2022-12-29T07:54:16;11.10;99.90
35111;DHT22;21290;50.158;8.658;2022-12-29T07:56:45;11.10;99.90
35111;DHT22;21290;50.158;8.658;2022-12-29T07:59:11;11.20;99.90
35111;DHT22;21290;50.158;8.658;2022-12-29T08:01:41;11.30;99.90
35111;DHT22;21290;50.158;8.658;2022-12-29T08:04:07;11.50;99.90
35111;DHT22;21290;50.158;8.658;2022-12-29T08:06:34;11.60;99.90
35111;DHT22;21290;50.158;8.658;2022-12-29T08:09:03;11.60;99.90
35111;DHT22;21290;50.158;8.658;2022-12-29T08:11:43;11.70;99.90
35111;DHT22;21290;50.158;8.658;2022-12-29T08:14:10;11.70;99.90
35111;DHT22;21290;50.158;8.658;2022-12-29T08:16:36;11.70;99.90
35111;DHT22;21290;50.158;8.658;2022-12-29T08:19:03;11.70;99.90
35111;DHT22;21290;50.158;8.658;2022-12-29T08:21:31;11.70;99.90
35111;DHT22;21290;50.158;8.658;2022-12-29T08:23:57;11.70;99.90
35111;DHT22;21290;50.158;8.658;2022-12-29T08:26:25;11.80;99.90
35111;DHT22;21290;50.158;8.658;2022-12-29T08:28:52;11.80;99.90
35111;DHT22;21290;50.158;8.658;2022-12-29T08:31:19;11.80;99.90
35111;DHT22;21290;50.158;8.658;2022-12-29T08:33:46;11.80;99.90
35111;DHT22;21290;50.158;8.658;2022-12-29T08:36:12;11.80;99.90
35111;DHT22;21290;50.158;8.658;2022-12-29T08:38:39;11.80;99.90
35111;DHT22;21290;50.158;8.658;2022-12-29T08:41:05;11.80;99.90
35111;DHT22;21290;50.158;8.658;2022-12-29T08:43:32;11.70;99.90
35111;DHT22;21290;50.158;8.658;2022-12-29T08:45:59;11.70;99.90
35111;DHT22;21290;50.158;8.658;2022-12-29T08:48:26;11.70;99.90
35111;DHT22;21290;50.158;8.658;2022-12-29T08:50:52;11.70;99.90
35111;DHT22;21290;50.158;8.658;2022-12-29T08:53:19;11.70;99.90
35111;DHT22;21290;50.158;8.658;2022-12-29T08:55:46;11.60;99.90
35111;DHT22;21290;50.158;8.658;2022-12-29T08:58:13;11.60;99.90
35111;DHT22;21290;50.158;8.658;2022-12-29T09:00:41;11.50;99.90
35111;DHT22;21290;50.158;8.658;2022-12-29T09:03:07;11.50;99.90
35111;DHT22;21290;50.158;8.658;2022-12-29T09:05:34;11.40;99.90
35111;DHT22;21290;50.158;8.658;2022-12-29T09:08:01;11.20;99.90
35111;DHT22;21290;50.158;8.658;2022-12-29T09:10:27;11.00;99.90
35111;DHT22;21290;50.158;8.658;2022-12-29T09:12:54;10.90;99.90
35111;DHT22;21290;50.158;8.658;2022-12-29T09:15:21;10.80;99.90
35111;DHT22;21290;50.158;8.658;2022-12-29T09:17:47;10.70;99.90
35111;DHT22;21290;50.158;8.658;2022-12-29T09:20:17;10.70;99.90
35111;DHT22;21290;50.158;8.658;2022-12-29T09:22:44;10.70;99.90
35111;DHT22;21290;50.158;8.658;2022-12-29T09:25:13;10.70;99.90
35111;DHT22;21290;50.158;8.658;2022-12-29T09:27:40;10.70;99.90
35111;DHT22;21290;50.158;8.658;2022-12-29T09:30:07;10.80;99.90
35111;DHT22;21290;50.158;8.658;2022-12-29T09:32:34;10.80;99.90
35111;DHT22;21290;50.158;8.658;2022-12-29T09:35:09;10.80;99.90
35111;DHT22;21290;50.158;8.658;2022-12-29T09:37:35;10.80;99.90
35111;DHT22;21290;50.158;8.658;2022-12-29T09:40:02;10.80;99.90
35111;DHT22;21290;50.158;8.658;2022-12-29T09:45:08;10.80;99.90
35111;DHT22;21290;50.158;8.658;2022-12-29T09:47:37;10.70;99.90
35111;DHT22;21290;50.158;8.658;2022-12-29T09:52:37;10.50;99.90
35111;DHT22;21290;50.158;8.658;2022-12-29T09:57:41;10.40;99.90
35111;DHT22;21290;50.158;8.658;2022-12-29T10:00:11;10.50;99.90
35111;DHT22;21290;50.158;8.658;2022-12-29T10:02:42;10.40;99.90
35111;DHT22;21290;50.158;8.658;2022-12-29T10:08:10;10.50;99.90
35111;DHT22;21290;50.158;8.658;2022-12-29T10:10:45;10.50;99.90
35111;DHT22;21290;50.158;8.658;2022-12-29T10:23:56;10.30;99.90
35111;DHT22;21290;50.158;8.658;2022-12-29T10:26:29;10.30;99.90
35111;DHT22;21290;50.158;8.658;2022-12-29T10:29:10;10.20;99.90
35111;DHT22;21290;50.158;8.658;2022-12-29T10:31:43;10.20;99.90
35111;DHT22;21290;50.158;8.658;2022-12-29T10:34:27;10.10;99.90
35111;DHT22;21290;50.158;8.658;2022-12-29T10:37:00;10.10;99.90
35111;DHT22;21290;50.158;8.658;2022-12-29T10:39:32;10.10;99.90
35111;DHT22;21290;50.158;8.658;2022-12-29T10:44:29;10.10;99.90
35111;DHT22;21290;50.158;8.658;2022-12-29T10:47:02;10.20;99.90
35111;DHT22;21290;50.158;8.658;2022-12-29T10:49:30;10.40;99.90
35111;DHT22;21290;50.158;8.658;2022-12-29T10:51:58;10.40;99.90
35111;DHT22;21290;50.158;8.658;2022-12-29T10:54:32;10.50;99.90
35111;DHT22;21290;50.158;8.658;2022-12-29T10:57:08;10.50;99.90
35111;DHT22;21290;50.158;8.658;2022-12-29T10:59:35;10.60;99.90
35111;DHT22;21290;50.158;8.658;2022-12-29T11:07:02;11.10;99.90
35111;DHT22;21290;50.158;8.658;2022-12-29T11:09:30;11.20;99.90
35111;DHT22;21290;50.158;8.658;2022-12-29T11:12:22;11.20;99.90
35111;DHT22;21290;50.158;8.658;2022-12-29T11:15:00;11.90;99.90
35111;DHT22;21290;50.158;8.658;2022-12-29T11:17:27;12.60;99.90
35111;DHT22;21290;50.158;8.658;2022-12-29T11:19:53;13.50;99.90
35111;DHT22;21290;50.158;8.658;2022-12-29T11:22:22;14.30;99.90
35111;DHT22;21290;50.158;8.658;2022-12-29T11:24:49;15.40;99.90
35111;DHT22;21290;50.158;8.658;2022-12-29T11:29:43;16.80;99.90
35111;DHT22;21290;50.158;8.658;2022-12-29T11:32:20;17.60;99.90
35111;DHT22;21290;50.158;8.658;2022-12-29T11:34:54;17.10;99.90
35111;DHT22;21290;50.158;8.658;2022-12-29T11:37:26;16.50;99.90
35111;DHT22;21290;50.158;8.658;2022-12-29T11:40:01;16.00;99.90
35111;DHT22;21290;50.158;8.658;2022-12-29T11:42:37;15.40;99.90
35111;DHT22;21290;50.158;8.658;2022-12-29T11:45:06;14.70;99.90
35111;DHT22;21290;50.158;8.658;2022-12-29T11:47:36;14.30;99.90
35111;DHT22;21290;50.158;8.658;2022-12-29T11:50:04;14.20;99.90
35111;DHT22;21290;50.158;8.658;2022-12-29T11:52:32;13.90;99.90
35111;DHT22;21290;50.158;8.658;2022-12-29T11:55:02;13.70;99.90
35111;DHT22;21290;50.158;8.658;2022-12-29T11:57:29;13.70;99.90
35111;DHT22;21290;50.158;8.658;2022-12-29T11:59:58;13.90;99.90
35111;DHT22;21290;50.158;8.658;2022-12-29T12:02:35;13.90;99.90
35111;DHT22;21290;50.158;8.658;2022-12-29T12:05:20;13.80;99.90
35111;DHT22;21290;50.158;8.658;2022-12-29T12:07:50;13.60;99.90
35111;DHT22;21290;50.158;8.658;2022-12-29T12:10:27;13.40;99.90
35111;DHT22;21290;50.158;8.658;2022-12-29T12:15:27;13.60;99.90
35111;DHT22;21290;50.158;8.658;2022-12-29T12:18:00;13.70;99.90
35111;DHT22;21290;50.158;8.658;2022-12-29T12:20:34;13.80;99.90
35111;DHT22;21290;50.158;8.658;2022-12-29T12:25:37;13.90;99.90
35111;DHT22;21290;50.158;8.658;2022-12-29T12:28:11;13.70;99.90
35111;DHT22;21290;50.158;8.658;2022-12-29T12:30:46;13.60;99.90
35111;DHT22;21290;50.158;8.658;2022-12-29T12:33:31;13.50;99.90
35111;DHT22;21290;50.158;8.658;2022-12-29T12:44:11;13.10;99.90
35111;DHT22;21290;50.158;8.658;2022-12-29T12:46:54;13.00;99.90
35111;DHT22;21290;50.158;8.658;2022-12-29T12:49:29;13.00;99.90
35111;DHT22;21290;50.158;8.658;2022-12-29T12:52:17;12.90;99.90
35111;DHT22;21290;50.158;8.658;2022-12-29T12:57:17;12.90;99.90
35111;DHT22;21290;50.158;8.658;2022-12-29T13:02:38;12.60;99.90
35111;DHT22;21290;50.158;8.658;2022-12-29T13:08:18;12.40;99.90
35111;DHT22;21290;50.158;8.658;2022-12-29T13:13:28;12.30;99.90
35111;DHT22;21290;50.158;8.658;2022-12-29T13:16:00;12.20;99.90
35111;DHT22;21290;50.158;8.658;2022-12-29T13:18:40;12.20;99.90
35111;DHT22;21290;50.158;8.658;2022-12-29T13:23:43;12.10;99.90
35111;DHT22;21290;50.158;8.658;2022-12-29T13:32:03;12.40;99.90
35111;DHT22;21290;50.158;8.658;2022-12-29T13:34:39;12.60;99.90
35111;DHT22;21290;50.158;8.658;2022-12-29T13:37:09;12.80;99.90
35111;DHT22;21290;50.158;8.658;2022-12-29T13:39:43;13.00;99.90
35111;DHT22;21290;50.158;8.658;2022-12-29T13:42:12;13.20;99.90
35111;DHT22;21290;50.158;8.658;2022-12-29T13:44:50;13.20;99.90
35111;DHT22;21290;50.158;8.658;2022-12-29T13:47:26;13.00;99.90
35111;DHT22;21290;50.158;8.658;2022-12-29T13:49:54;12.90;99.90
35111;DHT22;21290;50.158;8.658;2022-12-29T13:55:01;12.70;99.90
35111;DHT22;21290;50.158;8.658;2022-12-29T13:57:47;12.70;99.90
35111;DHT22;21290;50.158;8.658;2022-12-29T14:00:18;12.60;99.90
35111;DHT22;21290;50.158;8.658;2022-12-29T14:07:58;12.50;99.90
35111;DHT22;21290;50.158;8.658;2022-12-29T14:10:27;12.50;99.90
35111;DHT22;21290;50.158;8.658;2022-12-29T14:13:11;12.50;99.90
35111;DHT22;21290;50.158;8.658;2022-12-29T14:15:39;12.40;99.90
35111;DHT22;21290;50.158;8.658;2022-12-29T14:20:36;12.30;99.90
35111;DHT22;21290;50.158;8.658;2022-12-29T14:28:28;12.20;99.90
35111;DHT22;21290;50.158;8.658;2022-12-29T14:30:55;12.10;99.90
35111;DHT22;21290;50.158;8.658;2022-12-29T14:33:23;12.10;99.90
35111;DHT22;21290;50.158;8.658;2022-12-29T14:35:53;12.00;99.90
35111;DHT22;21290;50.158;8.658;2022-12-29T14:38:21;12.00;99.90
35111;DHT22;21290;50.158;8.658;2022-12-29T14:40:48;11.90;99.90
35111;DHT22;21290;50.158;8.658;2022-12-29T14:43:20;11.90;99.90
35111;DHT22;21290;50.158;8.658;2022-12-29T14:45:58;11.90;99.90
35111;DHT22;21290;50.158;8.658;2022-12-29T14:48:30;11.90;99.90
35111;DHT22;21290;50.158;8.658;2022-12-29T14:50:58;11.80;99.90
35111;DHT22;21290;50.158;8.658;2022-12-29T14:53:44;11.80;99.90
35111;DHT22;21290;50.158;8.658;2022-12-29T14:56:13;11.80;99.90
35111;DHT22;21290;50.158;8.658;2022-12-29T14:58:46;11.90;99.90
35111;DHT22;21290;50.158;8.658;2022-12-29T15:01:38;11.90;99.90
35111;DHT22;21290;50.158;8.658;2022-12-29T15:04:04;11.80;99.90
35111;DHT22;21290;50.158;8.658;2022-12-29T15:06:31;11.80;99.90
35111;DHT22;21290;50.158;8.658;2022-12-29T15:09:22;11.80;99.90
35111;DHT22;21290;50.158;8.658;2022-12-29T15:11:52;11.80;99.90
35111;DHT22;21290;50.158;8.658;2022-12-29T15:17:01;11.50;99.90
35111;DHT22;21290;50.158;8.658;2022-12-29T15:19:28;11.50;99.90
35111;DHT22;21290;50.158;8.658;2022-12-29T15:21:55;11.40;99.90
35111;DHT22;21290;50.158;8.658;2022-12-29T15:24:22;11.30;99.90
35111;DHT22;21290;50.158;8.658;2022-12-29T15:26:50;11.20;99.90
35111;DHT22;21290;50.158;8.658;2022-12-29T15:29:38;11.20;99.90
35111;DHT22;21290;50.158;8.658;2022-12-29T15:32:19;11.10;99.90
35111;DHT22;21290;50.158;8.658;2022-12-29T15:34:47;11.10;99.90
35111;DHT22;21290;50.158;8.658;2022-12-29T15:37:18;11.00;99.90
35111;DHT22;21290;50.158;8.658;2022-12-29T15:39:45;10.90;99.90
35111;DHT22;21290;50.158;8.658;2022-12-29T15:44:42;10.90;99.90
35111;DHT22;21290;50.158;8.658;2022-12-29T15:47:14;10.80;99.90
35111;DHT22;21290;50.158;8.658;2022-12-29T15:49:43;10.80;99.90
35111;DHT22;21290;50.158;8.658;2022-12-29T15:52:10;10.80;99.90
35111;DHT22;21290;50.158;8.658;2022-12-29T15:54:37;10.70;99.90
35111;DHT22;21290;50.158;8.658;2022-12-29T15:57:04;10.70;99.90
35111;DHT22;21290;50.158;8.658;2022-12-29T15:59:46;10.70;99.90
35111;DHT22;21290;50.158;8.658;2022-12-29T16:02:13;10.70;99.90
35111;DHT22;21290;50.158;8.658;2022-12-29T16:04:40;10.80;99.90
35111;DHT22;21290;50.158;8.658;2022-12-29T16:07:29;10.80;99.90
35111;DHT22;21290;50.158;8.658;2022-12-29T16:10:04;10.80;99.90
35111;DHT22;21290;50.158;8.658;2022-12-29T16:12:32;10.70;99.90
35111;DHT22;21290;50.158;8.658;2022-12-29T16:14:59;10.70;99.90
35111;DHT22;21290;50.158;8.658;2022-12-29T16:17:27;10.70;99.90
35111;DHT22;21290;50.158;8.658;2022-12-29T16:20:03;10.70;99.90
35111;DHT22;21290;50.158;8.658;2022-12-29T16:24:59;10.60;99.90
35111;DHT22;21290;50.158;8.658;2022-12-29T16:27:36;10.60;99.90
35111;DHT22;21290;50.158;8.658;2022-12-29T16:30:07;10.60;99.90
35111;DHT22;21290;50.158;8.658;2022-12-29T16:32:47;10.50;99.90
35111;DHT22;21290;50.158;8.658;2022-12-29T16:35:26;10.50;99.90
35111;DHT22;21290;50.158;8.658;2022-12-29T16:40:52;10.50;99.90
35111;DHT22;21290;50.158;8.658;2022-12-29T16:43:20;10.40;99.90
35111;DHT22;21290;50.158;8.658;2022-12-29T16:50:41;10.30;99.90
35111;DHT22;21290;50.158;8.658;2022-12-29T16:55:47;10.30;99.90
35111;DHT22;21290;50.158;8.658;2022-12-29T16:58:16;10.30;99.90
35111;DHT22;21290;50.158;8.658;2022-12-29T17:00:44;10.20;99.90
35111;DHT22;21290;50.158;8.658;2022-12-29T17:03:12;10.10;99.90
35111;DHT22;21290;50.158;8.658;2022-12-29T17:05:38;10.10;99.90
35111;DHT22;21290;50.158;8.658;2022-12-29T17:08:18;10.10;99.90
35111;DHT22;21290;50.158;8.658;2022-12-29T17:10:50;10.00;99.90
35111;DHT22;21290;50.158;8.658;2022-12-29T17:13:36;10.00;99.90
35111;DHT22;21290;50.158;8.658;2022-12-29T17:16:03;10.00;99.90
35111;DHT22;21290;50.158;8.658;2022-12-29T17:18:30;10.00;99.90
35111;DHT22;21290;50.158;8.658;2022-12-29T17:20:56;9.90;99.90
35111;DHT22;21290;50.158;8.658;2022-12-29T17:23:23;10.00;99.90
35111;DHT22;21290;50.158;8.658;2022-12-29T17:25:52;9.90;99.90
35111;DHT22;21290;50.158;8.658;2022-12-29T17:28:20;9.90;99.90
35111;DHT22;21290;50.158;8.658;2022-12-29T17:30:48;9.90;99.90
35111;DHT22;21290;50.158;8.658;2022-12-29T17:33:18;9.90;99.90
35111;DHT22;21290;50.158;8.658;2022-12-29T17:35:45;9.90;99.90
35111;DHT22;21290;50.158;8.658;2022-12-29T17:38:22;9.80;99.90
35111;DHT22;21290;50.158;8.658;2022-12-29T17:40:51;9.80;99.90
35111;DHT22;21290;50.158;8.658;2022-12-29T17:43:17;9.90;99.90
35111;DHT22;21290;50.158;8.658;2022-12-29T17:45:45;9.80;99.90
35111;DHT22;21290;50.158;8.658;2022-12-29T17:48:13;9.80;99.90
35111;DHT22;21290;50.158;8.658;2022-12-29T17:50:40;9.80;99.90
35111;DHT22;21290;50.158;8.658;2022-12-29T17:53:10;9.90;99.90
35111;DHT22;21290;50.158;8.658;2022-12-29T17:55:37;9.80;99.90
35111;DHT22;21290;50.158;8.658;2022-12-29T17:58:17;9.80;99.90
35111;DHT22;21290;50.158;8.658;2022-12-29T18:00:45;9.80;99.90